sensor_id;sensor_type;location;lat;lon;timestamp;temperature;humidity
19033;DHT22;9649;51.042;13.804;2023-03-01T00:02:36;-3.00;99.90
19033;DHT22;9649;51.042;13.804;2023-03-01T00:07:39;-3.20;99.90
19033;DHT22;9649;51.042;13.804;2023-03-01T00:12:43;-3.20;99.90
19033;DHT22;9649;51.042;13.804;2023-03-01T00:17:45;-2.90;99.90
19033;DHT22;9649;51.042;13.804;2023-03-01T00:22:48;-2.70;99.90
19033;DHT22;9649;51.042;13.804;2023-03-01T00:27:53;-2.70;99.90
19033;DHT22;9649;51.042;13.804;2023-03-01T00:32:58;-2.50;99.90
19033;DHT22;9649;51.042;13.804;2023-03-01T00:38:02;-2.10;99.90
19033;DHT22;9649;51.042;13.804;2023-03-01T00:43:06;-2.10;99.90
19033;DHT22;9649;51.042;13.804;2023-03-01T00:48:09;-2.40;99.90
19033;DHT22;9649;51.042;13.804;2023-03-01T00:53:12;-2.60;99.90
19033;DHT22;9649;51.042;13.804;2023-03-01T00:58:16;-2.70;99.90
19033;DHT22;9649;51.042;13.804;2023-03-01T01:03:18;-2.70;99.90
19033;DHT22;9649;51.042;13.804;2023-03-01T01:08:21;-2.50;99.90
19033;DHT22;9649;51.042;13.804;2023-03-01T01:13:25;-2.50;99.90
19033;DHT22;9649;51.042;13.804;2023-03-01T01:18:28;-2.60;99.90
19033;DHT22;9649;51.042;13.804;2023-03-01T01:23:31;-2.50;99.90
19033;DHT22;9649;51.042;13.804;2023-03-01T01:28:35;-2.70;99.90
19033;DHT22;9649;51.042;13.804;2023-03-01T01:33:38;-2.90;99.90
19033;DHT22;9649;51.042;13.804;2023-03-01T01:38:41;-3.10;99.90
19033;DHT22;9649;51.042;13.804;2023-03-01T01:43:48;-3.10;99.90
19033;DHT22;9649;51.042;13.804;2023-03-01T01:48:54;-3.30;99.90
19033;DHT22;9649;51.042;13.804;2023-03-01T01:54:00;-3.40;99.90
19033;DHT22;9649;51.042;13.804;2023-03-01T01:59:05;-3.20;99.90
19033;DHT22;9649;51.042;13.804;2023-03-01T02:04:08;-3.10;99.90
19033;DHT22;9649;51.042;13.804;2023-03-01T02:09:13;-3.20;99.90
19033;DHT22;9649;51.042;13.804;2023-03-01T02:14:18;-3.30;99.90
19033;DHT22;9649;51.042;13.804;2023-03-01T02:19:31;-3.30;99.90
19033;DHT22;9649;51.042;13.804;2023-03-01T02:24:40;-3.30;99.90
19033;DHT22;9649;51.042;13.804;2023-03-01T02:29:50;-3.20;99.90
19033;DHT22;9649;51.042;13.804;2023-03-01T02:34:54;-3.50;99.90
19033;DHT22;9649;51.042;13.804;2023-03-01T02:39:59;-3.60;99.90
19033;DHT22;9649;51.042;13.804;2023-03-01T02:45:07;-3.30;99.90
19033;DHT22;9649;51.042;13.804;2023-03-01T02:50:22;-3.40;99.90
19033;DHT22;9649;51.042;13.804;2023-03-01T02:55:31;-3.50;99.90
19033;DHT22;9649;51.042;13.804;2023-03-01T03:00:37;-3.50;99.90
19033;DHT22;9649;51.042;13.804;2023-03-01T03:05:41;-3.40;99.90
19033;DHT22;9649;51.042;13.804;2023-03-01T03:10:44;-3.50;99.90
19033;DHT22;9649;51.042;13.804;2023-03-01T03:15:48;-4.00;99.90
19033;DHT22;9649;51.042;13.804;2023-03-01T03:20:52;-4.40;99.90
19033;DHT22;9649;51.042;13.804;2023-03-01T03:25:55;-4.30;99.90
19033;DHT22;9649;51.042;13.804;2023-03-01T03:31:00;-4.40;99.90
19033;DHT22;9649;51.042;13.804;2023-03-01T03:36:06;-4.50;99.90
19033;DHT22;9649;51.042;13.804;2023-03-01T03:41:14;-4.60;99.90
19033;DHT22;9649;51.042;13.804;2023-03-01T03:46:19;-4.70;99.90
19033;DHT22;9649;51.042;13.804;2023-03-01T03:51:21;-4.60;99.90
19033;DHT22;9649;51.042;13.804;2023-03-01T03:56:24;-4.80;99.90
19033;DHT22;9649;51.042;13.804;2023-03-01T04:01:30;-4.60;99.90
19033;DHT22;9649;51.042;13.804;2023-03-01T04:06:33;-4.70;99.90
19033;DHT22;9649;51.042;13.804;2023-03-01T04:11:36;-4.70;99.90
19033;DHT22;9649;51.042;13.804;2023-03-01T04:16:41;-4.80;99.90
19033;DHT22;9649;51.042;13.804;2023-03-01T04:21:44;-4.30;99.90
19033;DHT22;9649;51.042;13.804;2023-03-01T04:26:47;-4.50;99.90
19033;DHT22;9649;51.042;13.804;2023-03-01T04:31:51;-4.50;99.90
19033;DHT22;9649;51.042;13.804;2023-03-01T04:36:55;-4.50;99.90
19033;DHT22;9649;51.042;13.804;2023-03-01T04:41:58;-4.30;99.90
19033;DHT22;9649;51.042;13.804;2023-03-01T05:05:40;-4.50;99.90
19033;DHT22;9649;51.042;13.804;2023-03-01T05:11:19;-4.60;99.90
19033;DHT22;9649;51.042;13.804;2023-03-01T05:16:58;-4.40;99.90
19033;DHT22;9649;51.042;13.804;2023-03-01T05:22:57;-4.30;99.90
19033;DHT22;9649;51.042;13.804;2023-03-01T05:35:13;-4.60;99.90
19033;DHT22;9649;51.042;13.804;2023-03-01T05:59:15;-4.70;99.90
19033;DHT22;9649;51.042;13.804;2023-03-01T06:11:05;-4.50;99.90
19033;DHT22;9649;51.042;13.804;2023-03-01T06:16:44;-4.60;99.90
19033;DHT22;9649;51.042;13.804;2023-03-01T06:22:43;-4.60;99.90
19033;DHT22;9649;51.042;13.804;2023-03-01T07:04:32;-3.40;99.90
19033;DHT22;9649;51.042;13.804;2023-03-01T07:09:36;-3.10;99.90
19033;DHT22;9649;51.042;13.804;2023-03-01T07:14:39;-3.10;99.90
19033;DHT22;9649;51.042;13.804;2023-03-01T07:19:43;-3.00;99.90
19033;DHT22;9649;51.042;13.804;2023-03-01T07:24:46;-2.80;99.90
19033;DHT22;9649;51.042;13.804;2023-03-01T07:29:49;-2.70;99.90
19033;DHT22;9649;51.042;13.804;2023-03-01T07:34:53;-2.50;99.90
19033;DHT22;9649;51.042;13.804;2023-03-01T07:39:55;-2.20;99.90
19033;DHT22;9649;51.042;13.804;2023-03-01T07:44:59;0.60;1.00
19033;DHT22;9649;51.042;13.804;2023-03-01T07:50:04;2.20;57.00
19033;DHT22;9649;51.042;13.804;2023-03-01T07:55:07;2.60;1.00
19033;DHT22;9649;51.042;13.804;2023-03-01T08:00:11;5.30;1.00
19033;DHT22;9649;51.042;13.804;2023-03-01T08:05:16;7.40;1.00
19033;DHT22;9649;51.042;13.804;2023-03-01T08:10:19;9.70;1.00
19033;DHT22;9649;51.042;13.804;2023-03-01T08:15:21;10.60;1.00
19033;DHT22;9649;51.042;13.804;2023-03-01T08:20:25;11.60;1.00
19033;DHT22;9649;51.042;13.804;2023-03-01T08:25:28;12.10;1.00
19033;DHT22;9649;51.042;13.804;2023-03-01T08:30:31;14.80;1.00
19033;DHT22;9649;51.042;13.804;2023-03-01T08:35:35;16.30;99.90
19033;DHT22;9649;51.042;13.804;2023-03-01T08:40:38;18.20;99.90
19033;DHT22;9649;51.042;13.804;2023-03-01T08:45:40;18.50;99.90
19033;DHT22;9649;51.042;13.804;2023-03-01T08:50:44;19.20;99.90
19033;DHT22;9649;51.042;13.804;2023-03-01T08:55:47;19.90;99.90
19033;DHT22;9649;51.042;13.804;2023-03-01T09:00:51;21.20;99.90
19033;DHT22;9649;51.042;13.804;2023-03-01T09:06:00;22.90;99.90
19033;DHT22;9649;51.042;13.804;2023-03-01T09:11:04;24.00;99.90
19033;DHT22;9649;51.042;13.804;2023-03-01T09:16:08;25.50;99.90
19033;DHT22;9649;51.042;13.804;2023-03-01T09:21:15;24.80;99.90
19033;DHT22;9649;51.042;13.804;2023-03-01T09:26:25;25.80;99.90
19033;DHT22;9649;51.042;13.804;2023-03-01T09:31:28;26.90;99.90
19033;DHT22;9649;51.042;13.804;2023-03-01T09:36:32;27.20;99.90
19033;DHT22;9649;51.042;13.804;2023-03-01T09:41:44;27.60;99.90
19033;DHT22;9649;51.042;13.804;2023-03-01T09:46:48;28.60;99.90
19033;DHT22;9649;51.042;13.804;2023-03-01T09:51:58;29.10;99.90
19033;DHT22;9649;51.042;13.804;2023-03-01T09:57:09;29.00;99.90
19033;DHT22;9649;51.042;13.804;2023-03-01T10:02:26;29.30;99.90
19033;DHT22;9649;51.042;13.804;2023-03-01T10:07:38;29.60;99.90
19033;DHT22;9649;51.042;13.804;2023-03-01T10:12:45;32.10;99.90
19033;DHT22;9649;51.042;13.804;2023-03-01T10:17:51;30.20;99.90
19033;DHT22;9649;51.042;13.804;2023-03-01T10:22:56;29.00;99.90
19033;DHT22;9649;51.042;13.804;2023-03-01T10:28:02;30.20;99.90
19033;DHT22;9649;51.042;13.804;2023-03-01T10:33:15;32.10;99.90
19033;DHT22;9649;51.042;13.804;2023-03-01T10:38:21;33.20;99.90
19033;DHT22;9649;51.042;13.804;2023-03-01T10:43:24;33.00;99.90
19033;DHT22;9649;51.042;13.804;2023-03-01T10:48:27;33.80;99.90
19033;DHT22;9649;51.042;13.804;2023-03-01T10:53:34;34.10;99.90
19033;DHT22;9649;51.042;13.804;2023-03-01T10:58:38;34.00;99.90
19033;DHT22;9649;51.042;13.804;2023-03-01T11:03:41;34.80;99.90
19033;DHT22;9649;51.042;13.804;2023-03-01T11:08:47;35.60;99.90
19033;DHT22;9649;51.042;13.804;2023-03-01T11:13:53;35.70;99.90
19033;DHT22;9649;51.042;13.804;2023-03-01T11:18:58;35.20;99.90
19033;DHT22;9649;51.042;13.804;2023-03-01T11:24:05;35.70;99.90
19033;DHT22;9649;51.042;13.804;2023-03-01T11:29:18;36.30;99.90
19033;DHT22;9649;51.042;13.804;2023-03-01T11:34:32;35.80;99.90
19033;DHT22;9649;51.042;13.804;2023-03-01T11:39:40;36.10;99.90
19033;DHT22;9649;51.042;13.804;2023-03-01T11:44:47;32.40;99.90
19033;DHT22;9649;51.042;13.804;2023-03-01T11:50:19;33.60;99.90
19033;DHT22;9649;51.042;13.804;2023-03-01T11:55:35;34.40;99.90
19033;DHT22;9649;51.042;13.804;2023-03-01T12:00:58;35.60;99.90
19033;DHT22;9649;51.042;13.804;2023-03-01T12:06:12;34.80;99.90
19033;DHT22;9649;51.042;13.804;2023-03-01T12:11:27;34.00;99.90
19033;DHT22;9649;51.042;13.804;2023-03-01T12:16:40;33.70;99.90
19033;DHT22;9649;51.042;13.804;2023-03-01T12:21:56;31.70;99.90
19033;DHT22;9649;51.042;13.804;2023-03-01T12:27:13;32.70;99.90
19033;DHT22;9649;51.042;13.804;2023-03-01T12:32:28;32.70;99.90
19033;DHT22;9649;51.042;13.804;2023-03-01T12:37:45;33.50;99.90
19033;DHT22;9649;51.042;13.804;2023-03-01T12:43:02;33.50;99.90
19033;DHT22;9649;51.042;13.804;2023-03-01T12:48:23;33.00;99.90
19033;DHT22;9649;51.042;13.804;2023-03-01T12:53:29;33.20;99.90
19033;DHT22;9649;51.042;13.804;2023-03-01T12:58:37;33.70;99.90
19033;DHT22;9649;51.042;13.804;2023-03-01T13:04:47;33.10;99.90
19033;DHT22;9649;51.042;13.804;2023-03-01T13:23:13;31.00;99.90
19033;DHT22;9649;51.042;13.804;2023-03-01T13:29:42;32.30;99.90
19033;DHT22;9649;51.042;13.804;2023-03-01T13:35:46;29.40;99.90
19033;DHT22;9649;51.042;13.804;2023-03-01T13:47:37;29.50;99.90
19033;DHT22;9649;51.042;13.804;2023-03-01T13:59:47;29.40;99.90
19033;DHT22;9649;51.042;13.804;2023-03-01T14:04:58;28.70;99.90
19033;DHT22;9649;51.042;13.804;2023-03-01T14:10:03;26.80;99.90
19033;DHT22;9649;51.042;13.804;2023-03-01T14:15:13;24.70;99.90
19033;DHT22;9649;51.042;13.804;2023-03-01T14:20:21;24.30;99.90
19033;DHT22;9649;51.042;13.804;2023-03-01T14:25:26;26.60;99.90
19033;DHT22;9649;51.042;13.804;2023-03-01T14:30:34;27.90;99.90
19033;DHT22;9649;51.042;13.804;2023-03-01T14:35:38;28.50;99.90
19033;DHT22;9649;51.042;13.804;2023-03-01T14:40:42;27.40;99.90
19033;DHT22;9649;51.042;13.804;2023-03-01T14:45:48;26.20;99.90
19033;DHT22;9649;51.042;13.804;2023-03-01T14:50:53;25.60;99.90
19033;DHT22;9649;51.042;13.804;2023-03-01T14:56:00;25.40;99.90
19033;DHT22;9649;51.042;13.804;2023-03-01T15:01:05;24.60;99.90
19033;DHT22;9649;51.042;13.804;2023-03-01T15:06:14;24.60;99.90
19033;DHT22;9649;51.042;13.804;2023-03-01T15:11:20;22.70;99.90
19033;DHT22;9649;51.042;13.804;2023-03-01T15:16:27;22.40;99.90
19033;DHT22;9649;51.042;13.804;2023-03-01T15:21:34;22.30;99.90
19033;DHT22;9649;51.042;13.804;2023-03-01T15:26:42;21.80;99.90
19033;DHT22;9649;51.042;13.804;2023-03-01T15:31:54;21.80;99.90
19033;DHT22;9649;51.042;13.804;2023-03-01T15:37:01;20.80;99.90
19033;DHT22;9649;51.042;13.804;2023-03-01T15:42:07;20.00;99.90
19033;DHT22;9649;51.042;13.804;2023-03-01T15:47:27;18.70;99.90
19033;DHT22;9649;51.042;13.804;2023-03-01T15:52:35;18.80;99.90
19033;DHT22;9649;51.042;13.804;2023-03-01T15:57:38;18.10;99.90
19033;DHT22;9649;51.042;13.804;2023-03-01T16:02:42;17.80;99.90
19033;DHT22;9649;51.042;13.804;2023-03-01T16:07:46;17.10;99.90
19033;DHT22;9649;51.042;13.804;2023-03-01T16:12:49;15.20;99.90
19033;DHT22;9649;51.042;13.804;2023-03-01T16:17:53;13.40;99.90
19033;DHT22;9649;51.042;13.804;2023-03-01T16:22:59;12.00;99.90
19033;DHT22;9649;51.042;13.804;2023-03-01T16:28:03;10.70;99.90
19033;DHT22;9649;51.042;13.804;2023-03-01T16:33:10;9.90;99.90
19033;DHT22;9649;51.042;13.804;2023-03-01T16:38:34;9.10;99.90
19033;DHT22;9649;51.042;13.804;2023-03-01T16:43:37;8.60;99.90
19033;DHT22;9649;51.042;13.804;2023-03-01T16:48:39;8.00;99.90
19033;DHT22;9649;51.042;13.804;2023-03-01T16:53:44;7.40;99.90
19033;DHT22;9649;51.042;13.804;2023-03-01T16:58:48;7.30;99.90
19033;DHT22;9649;51.042;13.804;2023-03-01T17:03:51;6.90;99.90
19033;DHT22;9649;51.042;13.804;2023-03-01T17:08:56;6.40;1.00
19033;DHT22;9649;51.042;13.804;2023-03-01T17:13:59;6.30;1.00
19033;DHT22;9649;51.042;13.804;2023-03-01T17:19:02;5.90;1.00
19033;DHT22;9649;51.042;13.804;2023-03-01T17:24:06;5.50;1.00
19033;DHT22;9649;51.042;13.804;2023-03-01T17:29:09;5.30;99.90
19033;DHT22;9649;51.042;13.804;2023-03-01T17:34:13;5.20;1.00
19033;DHT22;9649;51.042;13.804;2023-03-01T17:39:22;5.00;1.00
19033;DHT22;9649;51.042;13.804;2023-03-01T17:44:31;4.90;99.90
19033;DHT22;9649;51.042;13.804;2023-03-01T17:49:35;4.60;1.00
19033;DHT22;9649;51.042;13.804;2023-03-01T17:54:39;4.30;99.90
19033;DHT22;9649;51.042;13.804;2023-03-01T17:59:42;4.10;1.00
19033;DHT22;9649;51.042;13.804;2023-03-01T18:04:45;3.90;99.90
19033;DHT22;9649;51.042;13.804;2023-03-01T18:09:49;3.80;1.00
19033;DHT22;9649;51.042;13.804;2023-03-01T18:14:52;3.70;1.00
19033;DHT22;9649;51.042;13.804;2023-03-01T18:19:55;3.80;99.10
19033;DHT22;9649;51.042;13.804;2023-03-01T18:25:00;3.60;99.90
19033;DHT22;9649;51.042;13.804;2023-03-01T18:30:04;3.30;1.00
19033;DHT22;9649;51.042;13.804;2023-03-01T18:35:07;3.00;1.00
19033;DHT22;9649;51.042;13.804;2023-03-01T18:40:12;2.90;99.90
19033;DHT22;9649;51.042;13.804;2023-03-01T18:45:15;2.90;1.00
19033;DHT22;9649;51.042;13.804;2023-03-01T18:50:19;2.70;1.00
19033;DHT22;9649;51.042;13.804;2023-03-01T18:55:26;2.60;1.00
19033;DHT22;9649;51.042;13.804;2023-03-01T19:00:30;3.10;1.00
19033;DHT22;9649;51.042;13.804;2023-03-01T19:05:36;2.60;1.00
19033;DHT22;9649;51.042;13.804;2023-03-01T19:10:54;2.10;99.90
19033;DHT22;9649;51.042;13.804;2023-03-01T19:16:06;1.80;1.00
19033;DHT22;9649;51.042;13.804;2023-03-01T19:21:16;1.90;1.00
19033;DHT22;9649;51.042;13.804;2023-03-01T19:26:25;1.80;1.00
19033;DHT22;9649;51.042;13.804;2023-03-01T19:31:33;1.70;1.00
19033;DHT22;9649;51.042;13.804;2023-03-01T19:55:11;1.60;1.00
19033;DHT22;9649;51.042;13.804;2023-03-01T20:26:16;0.90;1.00
19033;DHT22;9649;51.042;13.804;2023-03-01T20:31:49;1.10;1.00
19033;DHT22;9649;51.042;13.804;2023-03-01T20:36:59;1.00;1.00
19033;DHT22;9649;51.042;13.804;2023-03-01T20:42:09;1.10;1.00
19033;DHT22;9649;51.042;13.804;2023-03-01T20:47:15;1.10;1.00
19033;DHT22;9649;51.042;13.804;2023-03-01T20:52:23;1.10;1.00
19033;DHT22;9649;51.042;13.804;2023-03-01T20:57:34;0.90;1.00
19033;DHT22;9649;51.042;13.804;2023-03-01T21:02:39;0.50;1.00
19033;DHT22;9649;51.042;13.804;2023-03-01T21:07:44;0.30;1.00
19033;DHT22;9649;51.042;13.804;2023-03-01T21:12:50;0.10;1.00
19033;DHT22;9649;51.042;13.804;2023-03-01T21:17:56;0.30;1.00
19033;DHT22;9649;51.042;13.804;2023-03-01T21:23:01;0.10;1.00
19033;DHT22;9649;51.042;13.804;2023-03-01T21:28:07;0.10;1.00
19033;DHT22;9649;51.042;13.804;2023-03-01T21:33:11;0.30;1.00
19033;DHT22;9649;51.042;13.804;2023-03-01T22:37:10;-0.60;1.00
19033;DHT22;9649;51.042;13.804;2023-03-01T22:42:13;-0.80;15.60
19033;DHT22;9649;51.042;13.804;2023-03-01T22:47:16;-1.00;87.40
19033;DHT22;9649;51.042;13.804;2023-03-01T22:52:20;-1.10;99.90
19033;DHT22;9649;51.042;13.804;2023-03-01T22:57:23;-1.10;99.90
19033;DHT22;9649;51.042;13.804;2023-03-01T23:02:25;-1.30;99.90
19033;DHT22;9649;51.042;13.804;2023-03-01T23:07:30;-1.40;99.90
19033;DHT22;9649;51.042;13.804;2023-03-01T23:12:33;-1.40;99.90
19033;DHT22;9649;51.042;13.804;2023-03-01T23:17:35;-1.40;99.90
19033;DHT22;9649;51.042;13.804;2023-03-01T23:22:40;-1.50;99.90
19033;DHT22;9649;51.042;13.804;2023-03-01T23:27:42;-1.40;99.90
19033;DHT22;9649;51.042;13.804;2023-03-01T23:32:45;-1.40;99.90
19033;DHT22;9649;51.042;13.804;2023-03-01T23:37:49;-1.40;99.90
19033;DHT22;9649;51.042;13.804;2023-03-01T23:42:52;-1.20;85.90
19033;DHT22;9649;51.042;13.804;2023-03-01T23:47:54;-1.30;52.10
19033;DHT22;9649;51.042;13.804;2023-03-01T23:52:59;-1.50;99.90
19033;DHT22;9649;51.042;13.804;2023-03-01T23:58:01;-1.60;99.90
